مكناس, Morocco

06:57 PM WEST on أعس×س 29, 2016 (GMT +0100)
Meknes | | Change Station

Elev 1890 ft 33.88 °N, 5.52 °W | Updated 57 minutes ago

Mostly Cloudy
غائم كلياً
93 °F
Feels Like 93 °F
N
9
ريح متغير ريح from WNW

هذا اليوم
High -- | Low -- °F
--% Chance of Precip.
Yesterday
High -- | Low -- °F
Precip. -- في
الضغط 30.12 في
وضوح الرؤية 5.0 أميال
سحابات Few 2300 ft
غائم كلياً 10000 ft
نقطة الندى 46 °F
الرطوبة 20%
Rainfall 0.00 في
عمق الثلج Not available.
6:53 AM 7:51 PM
الهلال الأخير, 7% visible
METAR GMFM 291700Z 30008KT 8000 FEW023 BKN100 34/08 Q1020 NOSIG
الضغط 30.12 في
وضوح الرؤية 5.0 أميال
سحابات Few 2300 ft
غائم كلياً 10000 ft
نقطة الندى 46 °F
الرطوبة 20%
Rainfall 0.00 في
عمق الثلج Not available.
6:53 AM 7:51 PM
الهلال الأخير, 7% visible
METAR GMFM 291700Z 30008KT 8000 FEW023 BKN100 34/08 Q1020 NOSIG

10-Day Weather Forecast

No radar image for this location.
×

Almanac

علم الفلك

Aug. 29, 2016 Rise Set
Actual Time
Civil Twilight
Nautical Twilight
Astronomical Twilight
قمر
Length Of Visible Light
طول الیوم
Tomorrow will be .
, % of the Moon is Illuminated

Today's Extremes

Country Highs Country Lows

Community

WunderPhotos

Upload Photos

1,935,683 photos uploaded!

WunderBlog® & News

Nearby

جودة الهواء

  جودة الهواء AQ Index Pollutant
Not available.

عمق الثلج

Station Depth Elevation

Earthquake Activity

City Distance Mag. Time & Date
Minimum magnitude displayed is 2.5.

Coastal Water Temperatures

مكان درجات الحرارة

Stations

Nearby Weather Stations

Station Location الحرارة رياح باردة نقطة الندى الرطوبة ريح Precip. Elev تحديث Type